Time;durP1;ratioP1;P1;durP2;ratioP2;P2;SDS_P1;SDS_P2;PMS_P1;PMS_P2;Temp;Humidity;BMP_temperature;BMP_pressure;BME280_temperature;BME280_humidity;BME280_pressure;Samples;Min_cycle;Max_cycle;Signal;HPM_P1;HPM_P2
2023/07/19 00:00:56;;;;;;;4.55;3.00;;;15.90;99.90;;;;;;5109086;27;20433;-79
2023/07/19 00:03:22;;;;;;;9.38;3.13;;;15.90;99.90;;;;;;5094066;28;20108;-79
2023/07/19 00:05:48;;;;;;;4.35;3.17;;;15.90;99.90;;;;;;5107133;27;20117;-80
2023/07/19 00:08:14;;;;;;;5.68;3.35;;;15.90;99.90;;;;;;5109241;27;20039;-80
2023/07/19 00:10:40;;;;;;;5.38;3.10;;;15.90;99.90;;;;;;5087453;27;20812;-79
2023/07/19 00:13:06;;;;;;;4.75;3.45;;;15.90;99.90;;;;;;5091462;27;20059;-80
2023/07/19 00:15:32;;;;;;;4.72;3.95;;;15.90;99.90;;;;;;5092167;27;20247;-80
2023/07/19 00:17:57;;;;;;;5.13;3.08;;;15.90;99.90;;;;;;5097665;27;20142;-79
2023/07/19 00:20:23;;;;;;;4.30;3.55;;;15.90;99.90;;;;;;5102181;27;20179;-79
2023/07/19 00:22:49;;;;;;;5.63;3.40;;;15.90;99.90;;;;;;5096556;27;20118;-80
2023/07/19 00:25:17;;;;;;;6.95;3.55;;;15.90;99.90;;;;;;5085977;27;20051;-80
2023/07/19 00:27:43;;;;;;;6.10;3.50;;;15.90;99.90;;;;;;5096984;27;20375;-79
2023/07/19 00:30:10;;;;;;;5.40;3.25;;;15.90;99.90;;;;;;5107058;27;20043;-80
2023/07/19 00:32:35;;;;;;;4.05;3.40;;;15.80;99.90;;;;;;5093529;27;20039;-79
2023/07/19 00:35:01;;;;;;;8.05;3.70;;;15.90;99.90;;;;;;5104536;27;20027;-79
2023/07/19 00:37:26;;;;;;;3.45;3.08;;;15.90;99.90;;;;;;5100241;27;20410;-80
2023/07/19 00:39:52;;;;;;;5.88;4.03;;;15.90;99.90;;;;;;5097373;27;20034;-79
2023/07/19 00:42:18;;;;;;;5.30;4.10;;;15.90;99.90;;;;;;5105870;27;20051;-79
2023/07/19 00:44:43;;;;;;;6.75;3.80;;;15.90;99.90;;;;;;5124086;27;20050;-79
2023/07/19 00:47:11;;;;;;;5.45;3.33;;;15.90;99.90;;;;;;5086041;27;20138;-80
2023/07/19 00:49:40;;;;;;;7.85;3.92;;;15.90;99.90;;;;;;5107807;27;20042;-79
2023/07/19 00:52:07;;;;;;;5.60;3.55;;;15.90;99.90;;;;;;5123008;27;20125;-79
2023/07/19 00:54:32;;;;;;;7.88;4.03;;;15.90;99.90;;;;;;5102129;27;20046;-79
2023/07/19 00:56:58;;;;;;;5.63;3.78;;;15.80;99.90;;;;;;5087188;27;20035;-79
2023/07/19 00:59:26;;;;;;;4.00;3.60;;;15.80;99.90;;;;;;5086991;27;20566;-80
2023/07/19 01:01:52;;;;;;;5.75;3.80;;;15.80;99.90;;;;;;5083016;27;20043;-80
2023/07/19 01:04:18;;;;;;;8.30;4.22;;;15.90;99.90;;;;;;5086433;27;20039;-80
2023/07/19 01:06:44;;;;;;;7.53;3.85;;;15.90;99.90;;;;;;5087688;27;20175;-80
2023/07/19 01:09:11;;;;;;;5.50;3.55;;;15.70;99.90;;;;;;5086869;27;20120;-79
2023/07/19 01:11:37;;;;;;;5.20;3.50;;;15.70;99.90;;;;;;5082564;27;20520;-79
2023/07/19 01:14:03;;;;;;;4.07;3.25;;;15.80;99.90;;;;;;5116389;27;20031;-79
2023/07/19 01:16:28;;;;;;;6.35;3.47;;;15.70;99.90;;;;;;5122002;27;20039;-79
2023/07/19 01:18:55;;;;;;;5.45;3.90;;;15.70;99.90;;;;;;5081443;27;20414;-79
2023/07/19 01:21:22;;;;;;;6.00;3.90;;;15.60;99.90;;;;;;5084453;27;20046;-79
2023/07/19 01:23:47;;;;;;;5.78;3.22;;;15.60;99.90;;;;;;5091062;27;20046;-79
2023/07/19 01:26:13;;;;;;;4.75;3.20;;;15.60;99.90;;;;;;5126244;27;20031;-79
2023/07/19 01:28:39;;;;;;;5.55;3.85;;;15.60;99.90;;;;;;5088621;27;20355;-79
2023/07/19 01:31:05;;;;;;;4.50;3.30;;;15.70;99.90;;;;;;5119919;27;20475;-79
2023/07/19 01:33:32;;;;;;;5.50;3.88;;;15.60;99.90;;;;;;5104833;27;20023;-79
2023/07/19 01:35:57;;;;;;;5.82;4.00;;;15.70;99.90;;;;;;5108060;27;20107;-79
2023/07/19 01:38:23;;;;;;;5.75;3.80;;;15.70;99.90;;;;;;5102334;27;20047;-79
2023/07/19 01:40:49;;;;;;;6.20;3.95;;;15.60;99.90;;;;;;5106736;27;20034;-80
2023/07/19 01:43:14;;;;;;;5.38;3.55;;;15.60;99.90;;;;;;5083554;27;20052;-79
2023/07/19 01:45:40;;;;;;;7.68;3.60;;;15.60;99.90;;;;;;5098867;27;20051;-79
2023/07/19 01:48:06;;;;;;;4.78;3.80;;;15.60;99.90;;;;;;5088003;28;20054;-79
2023/07/19 01:50:31;;;;;;;5.80;3.63;;;15.70;99.90;;;;;;5109436;27;20447;-79
2023/07/19 01:52:58;;;;;;;8.32;4.07;;;15.70;99.90;;;;;;5103369;27;20356;-79
2023/07/19 01:55:23;;;;;;;9.82;3.90;;;15.70;99.90;;;;;;5089706;27;20383;-79
2023/07/19 01:57:49;;;;;;;5.22;3.60;;;15.70;99.90;;;;;;5094384;27;20046;-79
2023/07/19 02:00:15;;;;;;;5.20;3.60;;;15.70;99.90;;;;;;5104403;27;20466;-80
2023/07/19 02:02:43;;;;;;;5.53;4.28;;;15.70;99.90;;;;;;5104763;27;20232;-79
2023/07/19 02:05:09;;;;;;;5.68;4.10;;;15.70;99.90;;;;;;5088495;27;20035;-79
2023/07/19 02:07:34;;;;;;;6.47;4.20;;;15.70;99.90;;;;;;5090714;27;20047;-80
2023/07/19 02:10:00;;;;;;;4.50;3.65;;;15.70;99.90;;;;;;5104986;27;20089;-79
2023/07/19 02:12:26;;;;;;;4.47;3.78;;;15.70;99.90;;;;;;5105866;27;20035;-79
2023/07/19 02:14:54;;;;;;;5.35;3.20;;;15.70;99.90;;;;;;5092495;27;20066;-79
2023/07/19 02:17:22;;;;;;;5.38;3.60;;;15.70;99.90;;;;;;5101641;27;20500;-79
2023/07/19 02:19:48;;;;;;;7.25;3.95;;;15.70;99.90;;;;;;5096934;27;20082;-79
2023/07/19 02:22:16;;;;;;;6.72;3.90;;;15.70;99.90;;;;;;5084598;27;20112;-79
2023/07/19 02:24:42;;;;;;;5.30;3.70;;;15.70;99.90;;;;;;5086584;27;20039;-79
2023/07/19 02:27:08;;;;;;;6.20;4.10;;;15.70;99.90;;;;;;5084765;27;20495;-79
2023/07/19 02:29:33;;;;;;;5.45;4.10;;;15.70;99.90;;;;;;5106877;27;20067;-79
2023/07/19 02:31:59;;;;;;;7.25;3.83;;;15.70;99.90;;;;;;5128166;27;20257;-79
2023/07/19 02:34:25;;;;;;;5.15;3.88;;;15.70;99.90;;;;;;5092966;27;20406;-79
2023/07/19 02:36:50;;;;;;;7.25;4.05;;;15.80;99.90;;;;;;5101955;27;20457;-80
2023/07/19 02:39:17;;;;;;;5.30;3.95;;;15.70;99.90;;;;;;5106976;27;20110;-79
2023/07/19 02:41:42;;;;;;;4.63;3.67;;;15.70;99.90;;;;;;5088314;27;20516;-79
2023/07/19 02:44:08;;;;;;;5.57;3.63;;;15.70;99.90;;;;;;5098581;27;20126;-79
2023/07/19 02:46:33;;;;;;;5.57;3.95;;;15.70;99.90;;;;;;5095681;27;20078;-79
2023/07/19 02:48:59;;;;;;;5.05;3.70;;;15.70;99.90;;;;;;5109748;27;20161;-79
2023/07/19 02:51:25;;;;;;;6.88;3.85;;;15.60;99.90;;;;;;5109812;27;20050;-79
2023/07/19 02:53:51;;;;;;;5.13;3.67;;;15.60;99.90;;;;;;5101944;27;20108;-79
2023/07/19 02:56:16;;;;;;;10.40;5.20;;;15.60;99.90;;;;;;5094943;27;20100;-79
2023/07/19 02:58:42;;;;;;;5.80;4.40;;;15.70;99.90;;;;;;5090984;27;20041;-79
2023/07/19 03:01:08;;;;;;;8.40;4.20;;;15.70;99.90;;;;;;5092569;27;20046;-79
2023/07/19 03:03:34;;;;;;;5.68;3.90;;;15.60;99.90;;;;;;5132829;27;20039;-79
2023/07/19 03:06:01;;;;;;;8.18;4.75;;;15.70;99.90;;;;;;5130458;27;20141;-79
2023/07/19 03:08:27;;;;;;;9.60;5.05;;;15.70;99.90;;;;;;5116901;27;20051;-80
2023/07/19 03:10:53;;;;;;;9.88;4.45;;;15.70;99.90;;;;;;5114278;27;20035;-80
2023/07/19 03:13:19;;;;;;;6.15;5.40;;;15.70;99.90;;;;;;5093922;27;20506;-79
2023/07/19 03:15:46;;;;;;;8.38;4.68;;;15.70;99.90;;;;;;5094570;27;20039;-79
2023/07/19 03:18:12;;;;;;;10.23;5.35;;;15.60;99.90;;;;;;5104914;27;20083;-79
2023/07/19 03:20:38;;;;;;;9.38;4.38;;;15.60;99.90;;;;;;5130428;27;20104;-79
2023/07/19 03:23:04;;;;;;;7.50;4.45;;;15.50;99.90;;;;;;5111503;27;20031;-79
2023/07/19 03:25:29;;;;;;;10.63;4.72;;;15.50;99.90;;;;;;5096346;27;20038;-79
2023/07/19 03:27:55;;;;;;;5.03;4.25;;;15.50;99.90;;;;;;5129741;27;20031;-79
2023/07/19 03:30:21;;;;;;;7.75;4.45;;;15.60;99.90;;;;;;5098223;27;20088;-79
2023/07/19 03:32:51;;;;;;;5.10;4.55;;;15.50;99.90;;;;;;5097588;27;20195;-79
2023/07/19 03:35:17;;;;;;;8.18;5.60;;;15.50;99.90;;;;;;5083376;27;20063;-79
2023/07/19 03:37:44;;;;;;;6.85;5.55;;;15.60;99.90;;;;;;5098060;27;20039;-79
2023/07/19 03:40:14;;;;;;;7.13;5.55;;;15.50;99.90;;;;;;5107531;27;20041;-79
2023/07/19 03:42:40;;;;;;;6.18;5.50;;;15.50;99.90;;;;;;5107968;27;20059;-79
2023/07/19 03:45:07;;;;;;;6.75;4.95;;;15.50;99.90;;;;;;5105310;27;20043;-79
2023/07/19 03:47:33;;;;;;;9.02;5.25;;;15.50;99.90;;;;;;5127596;27;20122;-79
2023/07/19 03:49:59;;;;;;;9.02;5.38;;;15.60;99.90;;;;;;5093421;27;20065;-79
2023/07/19 03:52:25;;;;;;;9.63;5.75;;;15.60;99.90;;;;;;5109111;27;20474;-79
2023/07/19 03:54:50;;;;;;;9.98;5.50;;;15.60;99.90;;;;;;5106816;27;20372;-79
2023/07/19 03:57:16;;;;;;;5.80;5.07;;;15.60;99.90;;;;;;5107118;27;20035;-79
2023/07/19 03:59:42;;;;;;;7.75;5.53;;;15.70;99.90;;;;;;5105406;27;20040;-79
2023/07/19 04:02:08;;;;;;;8.93;5.35;;;15.60;99.90;;;;;;5126547;27;20155;-79
2023/07/19 04:04:33;;;;;;;8.50;5.72;;;15.70;99.90;;;;;;5130315;27;20501;-79
2023/07/19 04:06:59;;;;;;;8.15;5.55;;;15.70;99.90;;;;;;5127209;27;20606;-79
2023/07/19 04:09:24;;;;;;;9.45;6.35;;;15.70;99.90;;;;;;5125466;27;20051;-79
2023/07/19 04:11:50;;;;;;;12.73;6.82;;;15.80;99.90;;;;;;5100394;27;20075;-79
2023/07/19 04:14:16;;;;;;;9.55;6.53;;;15.80;99.90;;;;;;5124442;27;20365;-79
2023/07/19 04:16:42;;;;;;;8.27;6.18;;;15.80;99.90;;;;;;5103480;27;20035;-79
2023/07/19 04:19:08;;;;;;;9.90;6.80;;;15.90;99.90;;;;;;5102885;27;20047;-79
2023/07/19 04:21:33;;;;;;;10.48;6.88;;;15.90;99.90;;;;;;5091132;27;20049;-79
2023/07/19 04:23:59;;;;;;;10.27;6.97;;;15.90;99.90;;;;;;5087567;27;20103;-79
2023/07/19 04:26:25;;;;;;;8.95;6.50;;;15.90;99.90;;;;;;5088607;27;20035;-79
2023/07/19 04:28:50;;;;;;;9.05;7.20;;;16.00;99.90;;;;;;5120148;27;20051;-79
2023/07/19 04:31:16;;;;;;;10.00;7.13;;;16.00;99.90;;;;;;5105434;27;20042;-79
2023/07/19 04:33:42;;;;;;;11.05;7.00;;;16.10;99.90;;;;;;5103150;27;20039;-80
2023/07/19 04:36:15;;;;;;;7.88;6.25;;;16.10;99.90;;;;;;5100721;27;20031;-79
2023/07/19 04:38:42;;;;;;;8.88;7.00;;;16.10;99.90;;;;;;5102628;27;20075;-79
2023/07/19 04:41:08;;;;;;;9.32;7.10;;;16.20;99.90;;;;;;5125419;27;20047;-79
2023/07/19 04:43:34;;;;;;;9.70;7.55;;;16.20;99.90;;;;;;5097920;27;20075;-79
2023/07/19 04:46:00;;;;;;;11.10;8.10;;;16.20;99.90;;;;;;5092005;27;20138;-79
2023/07/19 04:48:26;;;;;;;11.88;7.63;;;16.20;99.90;;;;;;5108316;27;20123;-79
2023/07/19 04:50:56;;;;;;;9.73;7.47;;;16.30;99.90;;;;;;5105592;27;20034;-79
2023/07/19 04:53:25;;;;;;;12.60;7.35;;;16.30;99.90;;;;;;5086635;28;20377;-79
2023/07/19 04:55:51;;;;;;;9.95;7.10;;;16.30;99.90;;;;;;5097437;27;20458;-79
2023/07/19 04:58:17;;;;;;;13.07;8.13;;;16.40;99.90;;;;;;5093420;27;20047;-79
2023/07/19 05:00:43;;;;;;;11.30;7.57;;;16.40;99.90;;;;;;5082706;27;20049;-79
2023/07/19 05:03:10;;;;;;;10.45;7.80;;;16.50;99.90;;;;;;5102899;27;20050;-79
2023/07/19 05:05:35;;;;;;;9.27;7.40;;;16.50;99.90;;;;;;5103891;27;20390;-80
2023/07/19 05:08:04;;;;;;;12.35;7.70;;;16.60;99.90;;;;;;5101148;27;20031;-80
2023/07/19 05:10:39;;;;;;;10.95;7.90;;;16.60;99.90;;;;;;5084174;27;20123;-79
2023/07/19 05:13:05;;;;;;;9.43;7.28;;;16.60;99.90;;;;;;5088530;27;20075;-79
2023/07/19 05:15:31;;;;;;;13.07;6.97;;;16.70;99.90;;;;;;5105577;27;20367;-80
2023/07/19 05:17:57;;;;;;;10.32;7.45;;;16.70;99.90;;;;;;5105243;27;20107;-79
2023/07/19 05:20:23;;;;;;;8.05;6.85;;;16.80;99.90;;;;;;5103594;27;20035;-79
2023/07/19 05:22:49;;;;;;;9.93;7.13;;;16.80;99.90;;;;;;5085836;27;20071;-79
2023/07/19 05:25:15;;;;;;;9.02;6.43;;;16.90;99.90;;;;;;5102794;27;20114;-79
2023/07/19 05:27:41;;;;;;;8.10;6.40;;;16.90;99.90;;;;;;5095993;27;20122;-79
2023/07/19 05:30:07;;;;;;;10.13;6.43;;;16.90;99.90;;;;;;5095300;27;20031;-79
2023/07/19 05:32:33;;;;;;;8.07;6.13;;;16.90;99.90;;;;;;5103747;27;20039;-80
2023/07/19 05:34:59;;;;;;;9.40;6.00;;;16.80;99.90;;;;;;5082040;27;20043;-80
2023/07/19 05:37:24;;;;;;;6.72;5.68;;;16.80;99.90;;;;;;5101493;27;20120;-79
2023/07/19 05:39:50;;;;;;;7.57;6.07;;;16.80;99.90;;;;;;5095780;28;20044;-80
2023/07/19 05:42:16;;;;;;;7.45;5.07;;;16.80;99.90;;;;;;5089135;27;20499;-79
2023/07/19 05:44:41;;;;;;;8.27;6.00;;;16.80;99.90;;;;;;5075929;28;20443;-79
2023/07/19 05:47:07;;;;;;;7.22;5.50;;;16.90;99.90;;;;;;5095154;27;20554;-80
2023/07/19 05:49:33;;;;;;;7.20;5.53;;;16.80;99.90;;;;;;5099168;27;20113;-79
2023/07/19 05:51:59;;;;;;;8.48;5.30;;;16.90;99.90;;;;;;5092495;27;20139;-80
2023/07/19 05:54:25;;;;;;;7.30;5.13;;;16.90;99.90;;;;;;5099728;28;20122;-79
2023/07/19 05:56:51;;;;;;;10.13;5.63;;;16.80;99.90;;;;;;5090533;28;20040;-79
2023/07/19 05:59:17;;;;;;;6.95;4.93;;;16.90;99.90;;;;;;5085357;28;20374;-79
2023/07/19 06:01:43;;;;;;;7.82;4.88;;;16.90;99.90;;;;;;5079896;28;20229;-79
2023/07/19 06:04:09;;;;;;;9.15;5.55;;;16.90;99.90;;;;;;5106091;28;20552;-79
2023/07/19 06:06:35;;;;;;;8.50;5.50;;;16.90;99.90;;;;;;5098172;27;20122;-79
2023/07/19 06:09:05;;;;;;;10.50;5.78;;;17.00;99.90;;;;;;5100049;27;20123;-79
2023/07/19 06:11:32;;;;;;;7.25;5.80;;;16.90;99.90;;;;;;5090267;27;20035;-79
2023/07/19 06:13:59;;;;;;;10.85;6.45;;;16.90;99.90;;;;;;5105245;27;20039;-79
2023/07/19 06:16:25;;;;;;;7.00;5.72;;;16.90;99.90;;;;;;5090255;27;20087;-80
2023/07/19 06:18:51;;;;;;;9.38;5.88;;;16.90;99.90;;;;;;5106819;27;20050;-79
2023/07/19 06:21:17;;;;;;;8.02;5.80;;;16.90;99.90;;;;;;5109333;27;20044;-80
2023/07/19 06:23:43;;;;;;;9.60;5.65;;;16.90;99.90;;;;;;5111293;27;20039;-79
2023/07/19 06:26:09;;;;;;;10.32;5.90;;;16.90;99.90;;;;;;5107671;27;20032;-79
2023/07/19 06:28:35;;;;;;;8.18;5.75;;;16.90;99.90;;;;;;5088770;27;20085;-80
2023/07/19 06:31:01;;;;;;;7.15;5.45;;;16.90;99.90;;;;;;5105818;27;20106;-79
2023/07/19 06:33:31;;;;;;;7.28;5.53;;;16.90;99.90;;;;;;5110576;27;20039;-79
2023/07/19 06:35:57;;;;;;;7.95;5.28;;;16.90;99.90;;;;;;5109374;27;20038;-80
2023/07/19 06:38:25;;;;;;;11.32;6.25;;;16.90;99.90;;;;;;5086240;27;20316;-80
2023/07/19 06:40:51;;;;;;;8.10;5.60;;;16.90;99.90;;;;;;5105700;27;20279;-80
2023/07/19 06:43:16;;;;;;;8.48;5.07;;;16.90;99.90;;;;;;5103449;27;20047;-80
2023/07/19 06:45:45;;;;;;;7.05;5.13;;;16.90;99.90;;;;;;5105892;27;20032;-80
2023/07/19 06:48:10;;;;;;;7.20;4.97;;;17.00;99.90;;;;;;5106321;27;20705;-80
2023/07/19 06:50:36;;;;;;;8.35;5.00;;;16.90;99.90;;;;;;5103400;27;20100;-80
2023/07/19 06:53:02;;;;;;;8.77;5.20;;;17.00;99.90;;;;;;5115772;27;20080;-80
2023/07/19 06:55:27;;;;;;;6.70;5.20;;;17.10;99.90;;;;;;5093476;27;20703;-80
2023/07/19 06:57:53;;;;;;;7.20;5.53;;;17.20;99.90;;;;;;5107968;27;20051;-80
2023/07/19 07:00:19;;;;;;;8.70;5.20;;;17.20;99.90;;;;;;5090627;27;20523;-80
2023/07/19 07:02:46;;;;;;;7.60;5.00;;;17.30;99.90;;;;;;5102554;27;20047;-81
2023/07/19 07:05:12;;;;;;;7.13;5.30;;;17.30;99.90;;;;;;5089920;27;20527;-80
2023/07/19 07:07:39;;;;;;;7.07;4.60;;;17.30;99.90;;;;;;5091489;27;20039;-80
2023/07/19 07:10:08;;;;;;;6.97;4.90;;;17.30;99.90;;;;;;5103169;27;20599;-80
2023/07/19 07:12:35;;;;;;;6.82;4.32;;;17.40;99.90;;;;;;5085673;27;20035;-80
2023/07/19 07:15:01;;;;;;;7.75;4.50;;;17.40;99.90;;;;;;5081776;27;20390;-80
2023/07/19 07:17:27;;;;;;;7.28;4.10;;;17.50;99.90;;;;;;5086052;27;20482;-80
2023/07/19 07:19:53;;;;;;;6.30;4.15;;;17.60;99.90;;;;;;5106682;27;20131;-80
2023/07/19 07:22:19;;;;;;;5.95;3.63;;;17.60;99.90;;;;;;5108841;27;20039;-80
2023/07/19 07:24:45;;;;;;;7.72;4.00;;;17.60;99.90;;;;;;5099349;27;20372;-80
2023/07/19 07:27:11;;;;;;;5.25;3.97;;;17.60;99.90;;;;;;5086127;27;20499;-80
2023/07/19 07:29:41;;;;;;;4.47;3.10;;;17.70;99.90;;;;;;5105580;27;20035;-80
2023/07/19 07:32:08;;;;;;;4.70;2.78;;;17.70;99.90;;;;;;5093350;27;20671;-80
2023/07/19 07:34:34;;;;;;;3.80;2.80;;;17.60;99.90;;;;;;5101049;27;20039;-80
2023/07/19 07:37:00;;;;;;;6.38;3.40;;;17.70;99.90;;;;;;5087770;27;20434;-80
2023/07/19 07:39:25;;;;;;;5.38;3.13;;;17.80;99.90;;;;;;5101575;27;20044;-80
2023/07/19 07:41:51;;;;;;;5.07;2.85;;;17.90;99.90;;;;;;5086337;27;20044;-80
2023/07/19 07:44:17;;;;;;;4.65;2.85;;;17.90;99.90;;;;;;5128086;27;20034;-80
2023/07/19 07:46:42;;;;;;;4.22;2.50;;;18.00;99.90;;;;;;5108588;27;20424;-80
2023/07/19 07:49:08;;;;;;;6.10;2.50;;;18.10;99.90;;;;;;5093339;27;20039;-80
2023/07/19 07:51:35;;;;;;;3.22;2.30;;;18.40;99.90;;;;;;5103671;27;20512;-80
2023/07/19 07:54:00;;;;;;;3.60;2.42;;;18.20;99.90;;;;;;5097947;27;20188;-80
2023/07/19 07:56:26;;;;;;;2.92;2.22;;;18.20;99.90;;;;;;5093704;27;20581;-80
2023/07/19 07:58:51;;;;;;;2.70;2.00;;;18.10;99.90;;;;;;5098956;27;20042;-80
2023/07/19 08:01:17;;;;;;;3.90;2.55;;;18.30;99.90;;;;;;5078480;27;20493;-80
2023/07/19 08:03:46;;;;;;;4.95;2.53;;;18.40;99.90;;;;;;5100853;27;20035;-80
2023/07/19 08:06:12;;;;;;;4.30;2.08;;;18.60;99.90;;;;;;5105022;27;20051;-80
2023/07/19 08:08:37;;;;;;;4.45;2.03;;;18.70;99.90;;;;;;5113580;27;20465;-80
2023/07/19 08:11:09;;;;;;;2.65;1.60;;;18.90;99.90;;;;;;5103887;27;20067;-80
2023/07/19 08:13:35;;;;;;;4.55;1.75;;;18.80;99.90;;;;;;5095599;27;20059;-80
2023/07/19 08:16:01;;;;;;;4.53;1.90;;;18.70;99.90;;;;;;5120559;27;20042;-80
2023/07/19 08:18:27;;;;;;;6.93;2.10;;;18.90;99.90;;;;;;5116001;27;20030;-80
2023/07/19 08:20:54;;;;;;;2.83;2.05;;;19.00;99.90;;;;;;5094144;27;20042;-80
2023/07/19 08:23:19;;;;;;;3.47;1.70;;;19.00;99.90;;;;;;5087843;27;20536;-80
2023/07/19 08:25:45;;;;;;;3.72;1.73;;;18.90;99.90;;;;;;5089543;27;20039;-80
2023/07/19 08:28:10;;;;;;;3.58;1.90;;;18.70;99.90;;;;;;5098193;27;20023;-80
2023/07/19 08:30:36;;;;;;;2.65;1.70;;;18.80;99.90;;;;;;5093658;27;20084;-80
2023/07/19 08:33:07;;;;;;;3.30;1.55;;;18.70;99.90;;;;;;5090843;27;20511;-80
2023/07/19 08:35:32;;;;;;;3.60;1.70;;;18.90;99.90;;;;;;5102879;27;20031;-80
2023/07/19 08:37:58;;;;;;;3.42;1.48;;;18.70;99.90;;;;;;5088659;27;20039;-80
2023/07/19 08:40:29;;;;;;;3.40;1.40;;;18.50;99.90;;;;;;5093057;27;20549;-80
2023/07/19 08:42:55;;;;;;;4.60;1.77;;;18.50;99.90;;;;;;5101283;27;20128;-80
2023/07/19 08:45:23;;;;;;;4.30;1.98;;;18.60;99.90;;;;;;5108157;27;20316;-80
2023/07/19 08:47:50;;;;;;;3.35;1.88;;;18.50;99.90;;;;;;5104740;27;20130;-80
2023/07/19 08:50:17;;;;;;;4.13;1.88;;;18.70;99.90;;;;;;5091151;27;20043;-80
2023/07/19 08:52:43;;;;;;;3.88;1.52;;;18.80;99.90;;;;;;5084985;27;20520;-80
2023/07/19 08:55:09;;;;;;;2.22;1.50;;;18.90;99.90;;;;;;5097670;27;20046;-80
2023/07/19 08:57:43;;;;;;;3.80;1.70;;;19.00;99.90;;;;;;5115959;27;20031;-80
2023/07/19 09:00:09;;;;;;;4.20;1.50;;;19.10;99.90;;;;;;5083467;27;20051;-80
2023/07/19 09:02:35;;;;;;;5.13;1.27;;;19.10;99.90;;;;;;5094000;27;20454;-80
2023/07/19 09:05:09;;;;;;;2.47;1.33;;;19.40;99.90;;;;;;5100708;27;20171;-80
2023/07/19 09:07:36;;;;;;;3.17;1.50;;;19.50;99.90;;;;;;5107335;27;20476;-80
2023/07/19 09:10:03;;;;;;;4.28;1.73;;;19.90;99.90;;;;;;5094197;27;20047;-80
2023/07/19 09:12:55;;;;;;;1.98;1.27;;;20.20;99.90;;;;;;5092505;27;20062;-80
2023/07/19 09:15:21;;;;;;;2.70;1.30;;;20.00;99.90;;;;;;5103108;27;20443;-80
2023/07/19 09:17:48;;;;;;;2.22;1.13;;;20.10;99.90;;;;;;5127301;27;20099;-80
2023/07/19 09:20:16;;;;;;;2.97;1.20;;;20.20;99.90;;;;;;5089748;27;20050;-80
2023/07/19 09:22:42;;;;;;;1.83;1.17;;;20.30;99.90;;;;;;5094391;27;20054;-79
2023/07/19 09:25:10;;;;;;;2.38;0.98;;;20.70;99.90;;;;;;5090302;27;20039;-80
2023/07/19 09:27:37;;;;;;;2.20;1.27;;;21.00;99.90;;;;;;5128386;27;20134;-80
2023/07/19 09:30:12;;;;;;;2.47;1.55;;;20.80;99.90;;;;;;5087627;27;20058;-80
2023/07/19 09:32:39;;;;;;;2.13;1.30;;;20.60;99.90;;;;;;5097762;27;20454;-80
2023/07/19 09:35:06;;;;;;;2.47;1.17;;;20.80;99.90;;;;;;5120804;27;20076;-80
2023/07/19 09:37:31;;;;;;;2.05;1.08;;;20.90;99.90;;;;;;5103034;27;20042;-80
2023/07/19 09:39:59;;;;;;;2.22;1.10;;;21.00;99.90;;;;;;5101307;27;20813;-80
2023/07/19 09:42:25;;;;;;;2.30;1.20;;;20.80;99.90;;;;;;5078341;27;20059;-80
2023/07/19 09:44:53;;;;;;;2.15;1.30;;;20.70;99.90;;;;;;5084914;27;20328;-79
2023/07/19 09:47:18;;;;;;;3.45;1.10;;;20.40;99.90;;;;;;5087439;27;20160;-80
2023/07/19 09:49:45;;;;;;;2.22;1.20;;;20.30;99.90;;;;;;5087075;27;20044;-80
2023/07/19 09:52:17;;;;;;;2.30;1.42;;;20.20;99.90;;;;;;5101781;27;20758;-80
2023/07/19 09:54:44;;;;;;;4.80;1.90;;;19.70;99.90;;;;;;5118889;27;20681;-80
2023/07/19 09:57:09;;;;;;;2.83;1.20;;;19.70;99.90;;;;;;5098002;27;20035;-80
2023/07/19 09:59:44;;;;;;;3.33;1.35;;;19.60;99.90;;;;;;5087262;27;20034;-80
2023/07/19 10:02:13;;;;;;;3.05;1.58;;;19.50;99.90;;;;;;5101406;27;20405;-80
2023/07/19 10:04:42;;;;;;;2.88;1.48;;;19.70;99.90;;;;;;5107561;27;20163;-80
2023/07/19 10:07:15;;;;;;;4.18;1.45;;;19.90;99.90;;;;;;5116370;27;20470;-81
2023/07/19 10:09:45;;;;;;;3.40;1.40;;;20.00;99.90;;;;;;5112410;27;20116;-80
2023/07/19 10:12:17;;;;;;;3.30;1.27;;;20.30;99.90;;;;;;5119289;27;20035;-81
2023/07/19 10:15:12;;;;;;;3.65;1.48;;;20.60;99.90;;;;;;5087905;27;20043;-81
2023/07/19 10:17:53;;;;;;;2.42;1.27;;;20.70;99.90;;;;;;5117037;27;20039;-81
2023/07/19 10:20:24;;;;;;;2.15;1.90;;;20.70;99.90;;;;;;5099139;27;20143;-81
2023/07/19 10:23:05;;;;;;;3.65;1.83;;;20.40;99.90;;;;;;5107120;27;20054;-81
2023/07/19 10:25:48;;;;;;;3.47;1.77;;;19.60;99.90;;;;;;5089821;27;20039;-81
2023/07/19 10:28:24;;;;;;;4.63;2.00;;;19.80;99.90;;;;;;5106966;27;20035;-81
2023/07/19 10:31:00;;;;;;;4.45;1.75;;;19.80;99.90;;;;;;5122867;27;20387;-81
2023/07/19 10:33:28;;;;;;;2.60;1.48;;;19.70;99.90;;;;;;5098073;27;20036;-81
2023/07/19 10:35:55;;;;;;;4.38;1.73;;;19.80;99.90;;;;;;5103366;27;20046;-81
2023/07/19 10:38:28;;;;;;;4.25;1.85;;;19.80;99.90;;;;;;5088966;27;20122;-80
2023/07/19 10:40:55;;;;;;;4.15;2.10;;;20.00;99.90;;;;;;5089403;27;20045;-81
2023/07/19 10:43:22;;;;;;;3.97;1.67;;;19.80;99.90;;;;;;5102517;27;20501;-81
2023/07/19 10:45:47;;;;;;;5.13;1.67;;;20.20;99.90;;;;;;5102140;27;20054;-81
2023/07/19 10:48:13;;;;;;;4.82;1.55;;;20.00;99.90;;;;;;5085277;27;20038;-81
2023/07/19 10:50:41;;;;;;;3.83;1.50;;;20.60;99.90;;;;;;5110453;27;20035;-81
2023/07/19 10:53:07;;;;;;;4.97;1.52;;;20.90;99.90;;;;;;5114256;27;20325;-81
2023/07/19 10:55:33;;;;;;;3.00;2.00;;;20.90;99.90;;;;;;5109046;27;20035;-81
2023/07/19 10:57:58;;;;;;;2.97;1.60;;;21.10;99.90;;;;;;5108798;27;20416;-81
2023/07/19 11:00:24;;;;;;;2.35;1.30;;;20.70;99.90;;;;;;5091034;27;20054;-81
2023/07/19 11:02:53;;;;;;;2.47;1.38;;;19.90;99.90;;;;;;5105582;27;20038;-81
2023/07/19 11:05:22;;;;;;;2.05;1.40;;;19.80;99.90;;;;;;5096668;27;20044;-81
2023/07/19 11:07:49;;;;;;;2.53;1.50;;;19.40;99.90;;;;;;5084494;27;20517;-80
2023/07/19 11:10:15;;;;;;;4.10;1.80;;;19.40;99.90;;;;;;5126713;27;20118;-81
2023/07/19 11:12:41;;;;;;;2.65;1.40;;;19.70;99.90;;;;;;5102725;27;21554;-81
2023/07/19 11:15:08;;;;;;;3.05;1.25;;;19.60;99.90;;;;;;5089435;27;20477;-81
2023/07/19 11:17:35;;;;;;;2.17;1.70;;;19.40;99.90;;;;;;5135839;27;20074;-81
2023/07/19 11:20:01;;;;;;;2.50;1.30;;;19.30;99.90;;;;;;5093874;27;20437;-81
2023/07/19 11:22:27;;;;;;;3.05;1.42;;;19.60;99.90;;;;;;5101553;27;20756;-81
2023/07/19 11:24:54;;;;;;;4.18;1.77;;;20.30;99.90;;;;;;5097531;27;20047;-81
2023/07/19 11:27:36;;;;;;;1.90;1.27;;;20.70;99.90;;;;;;5097646;27;20040;-81
2023/07/19 11:30:03;;;;;;;3.30;1.45;;;21.40;99.90;;;;;;5134556;27;20069;-81
2023/07/19 11:32:28;;;;;;;2.58;1.35;;;21.10;99.90;;;;;;5104657;27;20042;-81
2023/07/19 11:34:56;;;;;;;4.05;1.63;;;20.90;99.90;;;;;;5096676;27;20121;-81
2023/07/19 11:37:32;;;;;;;3.13;1.45;;;21.10;99.90;;;;;;5104146;27;20039;-81
2023/07/19 11:40:01;;;;;;;2.17;1.17;;;21.40;99.90;;;;;;5110300;27;20054;-81
2023/07/19 11:42:54;;;;;;;3.08;1.38;;;21.70;99.90;;;;;;5094917;27;20054;-81
2023/07/19 11:45:23;;;;;;;3.72;1.33;;;22.00;99.90;;;;;;5086981;27;20047;-81
2023/07/19 11:47:51;;;;;;;2.60;1.13;;;22.60;99.90;;;;;;5090062;27;20282;-80
2023/07/19 11:50:18;;;;;;;2.78;1.25;;;22.30;99.90;;;;;;5107287;27;20687;-81
2023/07/19 11:52:48;;;;;;;3.28;1.00;;;21.20;99.90;;;;;;5128423;27;20038;-81
2023/07/19 11:55:16;;;;;;;3.15;1.20;;;21.50;99.90;;;;;;5085912;27;20060;-81
2023/07/19 11:57:43;;;;;;;2.83;1.25;;;22.30;99.90;;;;;;5104243;27;20027;-81
2023/07/19 12:00:10;;;;;;;1.52;1.10;;;22.20;99.90;;;;;;5103626;27;20501;-81
2023/07/19 12:02:37;;;;;;;3.35;1.40;;;21.90;99.90;;;;;;5105133;27;20058;-81
2023/07/19 12:05:04;;;;;;;4.65;1.00;;;22.30;99.90;;;;;;5089911;27;20041;-81
2023/07/19 12:07:33;;;;;;;2.85;1.10;;;22.60;99.90;;;;;;5098312;27;20062;-81
2023/07/19 12:10:03;;;;;;;2.35;1.05;;;22.30;99.90;;;;;;5095905;27;20042;-81
2023/07/19 12:12:33;;;;;;;2.67;1.20;;;22.30;99.90;;;;;;5097808;27;20122;-81
2023/07/19 12:15:06;;;;;;;1.65;1.23;;;22.20;99.90;;;;;;5087270;27;20184;-81
2023/07/19 12:17:32;;;;;;;2.90;1.30;;;22.10;99.90;;;;;;5115931;27;20050;-81
2023/07/19 12:19:59;;;;;;;3.08;1.23;;;21.20;99.90;;;;;;5106388;27;20529;-81
2023/07/19 12:22:29;;;;;;;1.83;1.20;;;21.10;99.90;;;;;;5109494;27;20039;-81
2023/07/19 12:24:55;;;;;;;3.03;1.02;;;20.90;99.90;;;;;;5093223;27;20200;-81
2023/07/19 12:27:21;;;;;;;1.88;1.10;;;21.00;99.90;;;;;;5098350;27;20046;-81
2023/07/19 12:29:46;;;;;;;2.05;1.10;;;21.00;99.90;;;;;;5086797;27;20026;-81
2023/07/19 12:32:12;;;;;;;2.95;1.30;;;20.80;99.90;;;;;;5099402;27;20417;-80
2023/07/19 12:34:37;;;;;;;1.52;0.80;;;20.50;99.90;;;;;;5094777;27;20038;-80
2023/07/19 12:37:07;;;;;;;3.25;1.30;;;20.40;99.90;;;;;;5100611;27;20442;-81
2023/07/19 12:39:32;;;;;;;1.17;1.08;;;20.30;99.90;;;;;;5114758;27;20165;-80
2023/07/19 12:41:58;;;;;;;1.95;0.88;;;20.40;99.90;;;;;;5087969;27;20170;-80
2023/07/19 12:44:24;;;;;;;2.00;0.90;;;20.60;99.90;;;;;;5124357;27;20090;-81